createdAt,value
2018-12-06T00:00:26.583Z,1.50
2018-12-06T00:02:54.540Z,1.50
2018-12-06T00:05:22.501Z,1.40
2018-12-06T00:08:18.607Z,1.40
2018-12-06T00:10:46.928Z,1.40
2018-12-06T00:13:14.784Z,1.30
2018-12-06T00:15:42.881Z,1.30
2018-12-06T00:18:11.448Z,1.20
2018-12-06T00:20:40.657Z,1.20
2018-12-06T00:23:08.570Z,1.20
2018-12-06T00:25:37.025Z,1.10
2018-12-06T00:28:05.179Z,1.10
2018-12-06T00:30:41.142Z,1.10
2018-12-06T00:33:09.283Z,1.10
2018-12-06T00:35:37.263Z,1.10
2018-12-06T00:38:05.342Z,1.10
2018-12-06T00:40:33.434Z,1.10
2018-12-06T00:43:02.230Z,1.10
2018-12-06T00:45:30.935Z,1.10
2018-12-06T00:48:05.287Z,1.10
2018-12-06T00:50:33.676Z,1.10
2018-12-06T00:53:02.886Z,1.10
2018-12-06T00:55:30.767Z,1.10
2018-12-06T00:57:58.729Z,1.10
2018-12-06T01:00:26.726Z,1.10
2018-12-06T01:02:54.747Z,1.10
2018-12-06T01:05:22.955Z,1.10
2018-12-06T01:07:50.994Z,1.10
2018-12-06T01:10:18.855Z,1.10
2018-12-06T01:12:47.365Z,1.10
2018-12-06T01:15:15.366Z,1.10
2018-12-06T01:17:43.355Z,1.00
2018-12-06T01:20:12.504Z,0.90
2018-12-06T01:22:45.802Z,0.80
2018-12-06T01:25:15.231Z,0.70
2018-12-06T01:27:43.150Z,0.70
2018-12-06T01:30:12.256Z,0.60
2018-12-06T01:32:40.149Z,0.50
2018-12-06T01:35:08.346Z,0.40
2018-12-06T01:37:36.214Z,0.40
2018-12-06T01:40:04.469Z,0.30
2018-12-06T01:42:32.495Z,0.20
2018-12-06T01:45:00.588Z,0.10
2018-12-06T01:47:28.630Z,-0.10
2018-12-06T01:49:56.680Z,-0.20
2018-12-06T01:52:24.726Z,-0.30
2018-12-06T01:54:52.882Z,-0.40
2018-12-06T01:57:20.975Z,-0.50
2018-12-06T01:59:48.836Z,-0.60
2018-12-06T02:02:17.471Z,-0.70
2018-12-06T02:04:45.405Z,-0.80
2018-12-06T02:07:13.431Z,-0.90
2018-12-06T02:09:44.592Z,-1.00
2018-12-06T02:12:12.733Z,-1.10
2018-12-06T02:14:40.760Z,-1.20
2018-12-06T02:17:08.713Z,-1.30
2018-12-06T02:19:36.571Z,-1.30
2018-12-06T02:22:04.666Z,-1.40
2018-12-06T02:24:32.621Z,-1.50
2018-12-06T02:27:00.497Z,-1.40
2018-12-06T02:29:33.021Z,-1.40
2018-12-06T02:32:00.991Z,-1.40
2018-12-06T02:34:28.987Z,-1.40
2018-12-06T02:36:56.892Z,-1.40
2018-12-06T02:39:24.799Z,-1.40
2018-12-06T02:41:52.706Z,-1.40
2018-12-06T02:44:21.871Z,-1.40
2018-12-06T02:46:49.743Z,-1.40
2018-12-06T02:49:17.617Z,-1.40
2018-12-06T02:51:45.602Z,-1.40
2018-12-06T02:54:13.656Z,-1.40
2018-12-06T02:56:41.531Z,-1.50
2018-12-06T02:59:09.405Z,-1.50
2018-12-06T03:01:37.580Z,-1.50
2018-12-06T03:04:06.162Z,-1.50
2018-12-06T03:06:34.253Z,-1.60
2018-12-06T03:09:04.149Z,-1.60
2018-12-06T03:11:34.206Z,-1.60
2018-12-06T03:14:02.007Z,-1.60
2018-12-06T03:16:30.205Z,-1.60
2018-12-06T03:18:58.079Z,-1.60
2018-12-06T03:21:25.978Z,-1.60
2018-12-06T03:23:54.092Z,-1.60
2018-12-06T03:26:22.275Z,-1.60
2018-12-06T03:28:50.148Z,-1.50
2018-12-06T03:31:19.279Z,-1.50
2018-12-06T03:33:47.148Z,-1.50
2018-12-06T03:36:15.066Z,-1.50
2018-12-06T03:38:43.113Z,-1.50
2018-12-06T03:41:11.645Z,-1.50
2018-12-06T03:43:39.635Z,-1.50
2018-12-06T03:46:07.975Z,-1.50
2018-12-06T03:48:36.045Z,-1.50
2018-12-06T03:51:04.044Z,-1.50
2018-12-06T03:53:32.026Z,-1.50
2018-12-06T03:56:00.001Z,-1.50
2018-12-06T03:58:27.922Z,-1.50
2018-12-06T04:00:56.015Z,-1.50
2018-12-06T04:03:24.241Z,-1.50
2018-12-06T04:05:52.238Z,-1.50
2018-12-06T04:08:20.247Z,-1.50
2018-12-06T04:10:48.387Z,-1.50
2018-12-06T04:13:16.351Z,-1.50
2018-12-06T04:15:44.356Z,-1.50
2018-12-06T04:18:12.377Z,-1.50
2018-12-06T04:20:44.305Z,-1.50
2018-12-06T04:23:12.279Z,-1.60
2018-12-06T04:25:40.484Z,-1.60
2018-12-06T04:28:08.509Z,-1.60
2018-12-06T04:30:36.573Z,-1.70
2018-12-06T04:33:06.486Z,-1.70
2018-12-06T04:35:35.463Z,-1.80
2018-12-06T04:38:03.589Z,-1.80
2018-12-06T04:40:31.729Z,-1.80
2018-12-06T04:42:59.598Z,-1.90
2018-12-06T04:45:27.775Z,-1.90
2018-12-06T04:47:55.755Z,-1.90
2018-12-06T04:50:23.802Z,-2.00
2018-12-06T04:52:51.959Z,-2.00
2018-12-06T04:55:20.126Z,-2.10
2018-12-06T04:57:48.110Z,-2.10
2018-12-06T05:00:16.070Z,-2.20
2018-12-06T05:02:43.978Z,-2.30
2018-12-06T05:05:12.086Z,-2.30
2018-12-06T05:07:40.014Z,-2.30
2018-12-06T05:10:08.227Z,-2.30
2018-12-06T05:12:37.090Z,-2.40
2018-12-06T05:15:05.358Z,-2.40
2018-12-06T05:17:33.340Z,-2.50
2018-12-06T05:20:01.167Z,-2.50
2018-12-06T05:22:29.020Z,-2.50
2018-12-06T05:24:56.907Z,-2.50
2018-12-06T05:27:24.833Z,-2.50
2018-12-06T05:29:52.858Z,-2.60
2018-12-06T05:32:20.695Z,-2.60
2018-12-06T05:34:48.674Z,-2.60
2018-12-06T05:37:16.570Z,-2.70
2018-12-06T05:39:44.457Z,-2.70
2018-12-06T05:42:12.379Z,-2.70
2018-12-06T05:44:40.230Z,-2.70
2018-12-06T05:47:08.532Z,-2.70
2018-12-06T05:49:37.435Z,-2.70
2018-12-06T05:52:05.350Z,-2.80
2018-12-06T05:54:33.192Z,-2.70
2018-12-06T05:57:01.152Z,-2.70
2018-12-06T05:59:31.291Z,-2.70
2018-12-06T06:01:59.530Z,-2.70
2018-12-06T06:04:28.138Z,-2.70
2018-12-06T06:06:58.055Z,-2.70
2018-12-06T06:09:25.984Z,-2.80
2018-12-06T06:11:53.847Z,-2.90
2018-12-06T06:14:21.938Z,-2.90
2018-12-06T06:16:49.851Z,-3.00
2018-12-06T06:19:17.688Z,-3.00
2018-12-06T06:21:45.525Z,-2.90
2018-12-06T06:24:13.337Z,-2.80
2018-12-06T06:26:41.119Z,-2.80
2018-12-06T06:29:08.937Z,-2.70
2018-12-06T06:31:36.753Z,-2.70
2018-12-06T06:34:05.300Z,-2.70
2018-12-06T06:36:33.156Z,-2.60
2018-12-06T06:39:00.950Z,-2.60
2018-12-06T06:41:30.764Z,-2.60
2018-12-06T06:43:58.667Z,-2.50
2018-12-06T06:46:26.477Z,-2.40
2018-12-06T06:48:54.313Z,-2.30
2018-12-06T06:51:22.117Z,-2.20
2018-12-06T06:53:49.919Z,-2.00
2018-12-06T06:56:17.771Z,-1.90
2018-12-06T06:58:45.571Z,-1.80
2018-12-06T07:01:14.316Z,-1.60
2018-12-06T07:03:42.302Z,-1.40
2018-12-06T07:06:10.158Z,-1.20
2018-12-06T07:08:38.057Z,-1.00
2018-12-06T07:11:07.230Z,-0.90
2018-12-06T07:13:35.121Z,-0.70
2018-12-06T07:16:03.066Z,-0.50
2018-12-06T07:18:30.882Z,-0.30
2018-12-06T07:20:58.738Z,0.00
2018-12-06T07:23:26.951Z,0.30
2018-12-06T07:25:56.049Z,0.70
2018-12-06T07:28:23.952Z,1.00
2018-12-06T07:30:51.841Z,1.20
2018-12-06T07:33:19.680Z,1.40
2018-12-06T07:35:47.737Z,2.10
2018-12-06T07:38:15.725Z,2.70
2018-12-06T07:40:43.633Z,3.10
2018-12-06T07:43:11.684Z,3.60
2018-12-06T07:45:39.914Z,4.10
2018-12-06T07:48:07.708Z,5.10
2018-12-06T07:50:35.829Z,6.30
2018-12-06T07:53:03.926Z,7.30
2018-12-06T07:55:31.712Z,8.00
2018-12-06T07:57:59.954Z,8.40
2018-12-06T08:00:27.873Z,8.50
2018-12-06T08:02:55.663Z,8.40
2018-12-06T08:05:27.260Z,8.60
2018-12-06T08:07:56.828Z,8.90
2018-12-06T08:10:24.768Z,9.30
2018-12-06T08:12:53.048Z,9.30
2018-12-06T08:15:21.067Z,9.00
2018-12-06T08:17:48.852Z,8.80
2018-12-06T08:20:16.645Z,8.60
2018-12-06T08:22:44.589Z,8.70
2018-12-06T08:25:12.418Z,9.00
2018-12-06T08:27:40.207Z,9.30
2018-12-06T08:30:08.396Z,9.40
2018-12-06T08:32:36.268Z,9.20
2018-12-06T08:35:04.951Z,9.00
2018-12-06T08:37:32.752Z,8.80
2018-12-06T08:40:00.657Z,8.60
2018-12-06T08:42:29.085Z,8.50
2018-12-06T08:44:56.824Z,8.40
2018-12-06T08:47:24.657Z,8.10
2018-12-06T08:49:53.113Z,7.90
2018-12-06T08:52:20.909Z,7.70
2018-12-06T08:54:48.713Z,7.60
2018-12-06T08:57:16.716Z,7.40
2018-12-06T08:59:44.674Z,7.30
2018-12-06T09:02:12.432Z,7.10
2018-12-06T09:04:40.326Z,7.00
2018-12-06T09:07:08.134Z,7.00
2018-12-06T09:09:35.994Z,7.00
2018-12-06T09:12:05.535Z,7.10
2018-12-06T09:14:33.409Z,7.10
2018-12-06T09:17:01.205Z,7.20
2018-12-06T09:19:29.849Z,7.20
2018-12-06T09:21:57.760Z,7.30
2018-12-06T09:24:25.666Z,7.40
2018-12-06T09:26:58.692Z,7.50
2018-12-06T09:29:24.712Z,7.50
2018-12-06T09:31:53.258Z,7.60
2018-12-06T09:34:21.295Z,7.50
2018-12-06T09:36:49.242Z,7.50
2018-12-06T09:39:17.157Z,7.60
2018-12-06T09:41:45.082Z,7.60
2018-12-06T09:44:12.849Z,7.60
2018-12-06T09:46:40.765Z,7.70
2018-12-06T09:49:08.818Z,7.70
2018-12-06T09:51:36.809Z,7.80
2018-12-06T09:54:04.970Z,7.90
2018-12-06T09:56:33.365Z,8.00
2018-12-06T09:59:01.497Z,8.10
2018-12-06T10:01:29.306Z,8.20
2018-12-06T10:03:57.673Z,8.40
2018-12-06T10:06:25.712Z,8.40
2018-12-06T10:08:53.533Z,8.50
2018-12-06T10:11:21.598Z,8.60
2018-12-06T10:13:52.282Z,8.80
2018-12-06T10:16:20.063Z,9.20
2018-12-06T10:18:48.399Z,10.20
2018-12-06T10:21:16.371Z,11.50
2018-12-06T10:23:44.132Z,13.10
2018-12-06T10:26:11.913Z,14.10
2018-12-06T10:28:41.647Z,14.60
2018-12-06T10:31:09.686Z,15.00
2018-12-06T10:33:37.690Z,15.80
2018-12-06T10:36:05.436Z,17.00
2018-12-06T10:38:33.264Z,18.50
2018-12-06T10:41:01.094Z,20.40
2018-12-06T10:43:29.032Z,21.90
2018-12-06T10:45:56.911Z,22.30
2018-12-06T10:48:24.895Z,22.70
2018-12-06T10:51:05.052Z,23.50
2018-12-06T10:53:32.979Z,24.50
2018-12-06T10:56:00.853Z,25.40
2018-12-06T10:58:28.768Z,25.30
2018-12-06T11:01:02.840Z,25.20
2018-12-06T11:03:32.771Z,25.30
2018-12-06T11:06:01.193Z,25.40
2018-12-06T11:08:29.081Z,25.50
2018-12-06T11:10:56.888Z,25.40
2018-12-06T11:13:24.641Z,26.00
2018-12-06T11:18:30.187Z,26.50
2018-12-06T11:20:58.147Z,26.20
2018-12-06T11:23:25.953Z,26.30
2018-12-06T11:25:53.825Z,26.70
2018-12-06T11:28:21.759Z,27.30
2018-12-06T11:30:49.908Z,28.00
2018-12-06T11:33:17.711Z,28.60
2018-12-06T11:35:45.621Z,29.40
2018-12-06T11:38:13.584Z,29.40
2018-12-06T11:40:41.638Z,29.00
2018-12-06T11:43:09.541Z,28.90
2018-12-06T11:45:37.427Z,28.90
2018-12-06T11:48:05.322Z,28.50
2018-12-06T11:50:33.226Z,27.80
2018-12-06T11:53:01.120Z,26.90
2018-12-06T11:55:29.019Z,25.30
2018-12-06T11:57:56.995Z,23.60
2018-12-06T12:00:25.027Z,22.30
2018-12-06T12:02:53.247Z,21.30
2018-12-06T12:05:21.361Z,20.40
2018-12-06T12:07:49.850Z,19.50
2018-12-06T12:10:18.065Z,18.90
2018-12-06T12:12:48.306Z,18.80
2018-12-06T12:15:20.372Z,19.00
2018-12-06T12:17:48.964Z,19.40
2018-12-06T12:20:16.851Z,19.10
2018-12-06T12:22:46.328Z,18.80
2018-12-06T12:25:14.400Z,18.30
2018-12-06T12:27:42.534Z,17.80
2018-12-06T12:30:12.741Z,17.40
2018-12-06T12:32:40.548Z,17.30
2018-12-06T12:35:09.609Z,17.60
2018-12-06T12:37:37.597Z,18.10
2018-12-06T12:40:09.168Z,18.60
2018-12-06T12:42:37.382Z,19.00
2018-12-06T12:45:08.908Z,19.50
2018-12-06T12:47:36.778Z,20.00
2018-12-06T12:50:07.681Z,20.30
2018-12-06T12:52:36.177Z,20.70
2018-12-06T12:55:04.761Z,20.90
2018-12-06T12:57:32.745Z,19.90
2018-12-06T13:00:01.300Z,18.30
2018-12-06T13:02:29.092Z,16.70
2018-12-06T13:04:57.272Z,15.20
2018-12-06T13:07:26.956Z,13.90
2018-12-06T13:09:54.775Z,12.90
2018-12-06T13:12:23.156Z,12.00
2018-12-06T13:14:51.388Z,11.30
2018-12-06T13:17:19.714Z,10.60
2018-12-06T13:19:47.726Z,10.10
2018-12-06T13:22:16.225Z,9.70
2018-12-06T13:24:44.281Z,9.40
2018-12-06T13:27:12.483Z,9.30
2018-12-06T13:29:40.448Z,9.10
2018-12-06T13:32:08.832Z,8.90
2018-12-06T13:34:37.239Z,8.70
2018-12-06T13:37:05.514Z,8.50
2018-12-06T13:39:33.493Z,8.30
2018-12-06T13:42:01.845Z,8.20
2018-12-06T13:44:29.738Z,8.10
2018-12-06T13:46:57.910Z,8.00
2018-12-06T13:49:26.223Z,7.90
2018-12-06T13:51:54.098Z,7.80
2018-12-06T13:57:12.389Z,7.70
2018-12-06T13:59:40.769Z,7.50
2018-12-06T14:02:08.674Z,7.30
2018-12-06T14:04:36.876Z,7.20
2018-12-06T14:07:06.501Z,7.10
2018-12-06T14:09:34.273Z,7.00
2018-12-06T14:12:02.441Z,6.90
2018-12-06T14:14:31.386Z,6.70
2018-12-06T14:16:59.338Z,6.60
2018-12-06T14:19:27.262Z,6.40
2018-12-06T14:21:55.289Z,6.30
2018-12-06T14:24:23.055Z,6.30
2018-12-06T14:26:51.098Z,6.20
2018-12-06T14:29:19.308Z,6.00
2018-12-06T14:31:47.519Z,6.00
2018-12-06T14:34:16.082Z,5.90
2018-12-06T14:36:44.053Z,5.80
2018-12-06T14:39:12.136Z,5.70
2018-12-06T14:41:41.475Z,5.70
2018-12-06T14:44:09.329Z,5.60
2018-12-06T14:46:37.287Z,5.60
2018-12-06T14:49:05.160Z,5.50
2018-12-06T14:51:33.190Z,5.40
2018-12-06T14:54:00.998Z,5.40
2018-12-06T14:56:32.174Z,5.30
2018-12-06T14:59:00.137Z,5.30
2018-12-06T15:01:28.242Z,5.20
2018-12-06T15:03:56.167Z,5.10
2018-12-06T15:06:24.018Z,5.10
2018-12-06T15:08:51.802Z,5.00
2018-12-06T15:11:20.397Z,5.00
2018-12-06T15:13:48.284Z,4.90
2018-12-06T15:16:16.616Z,4.90
2018-12-06T15:18:44.834Z,4.80
2018-12-06T15:24:13.609Z,4.80
2018-12-06T15:26:41.563Z,4.80
2018-12-06T15:29:10.249Z,4.70
2018-12-06T15:31:39.585Z,4.70
2018-12-06T15:34:11.522Z,4.70
2018-12-06T15:36:40.669Z,4.60
2018-12-06T15:39:09.177Z,4.80
2018-12-06T15:41:39.316Z,4.70
2018-12-06T15:44:07.372Z,4.60
2018-12-06T15:46:38.246Z,4.50
2018-12-06T15:49:06.179Z,4.50
2018-12-06T15:51:34.168Z,4.50
2018-12-06T15:54:02.137Z,4.50
2018-12-06T15:56:30.348Z,4.40
2018-12-06T15:58:59.279Z,4.40
2018-12-06T16:01:27.180Z,4.40
2018-12-06T16:03:55.462Z,4.30
2018-12-06T16:06:23.522Z,4.30
2018-12-06T16:08:51.493Z,4.20
2018-12-06T16:11:19.571Z,4.20
2018-12-06T16:13:47.477Z,4.20
2018-12-06T16:16:16.411Z,4.20
2018-12-06T16:18:44.221Z,4.20
2018-12-06T16:21:12.278Z,4.10
2018-12-06T16:23:40.229Z,4.10
2018-12-06T16:26:08.704Z,4.10
2018-12-06T16:28:37.978Z,4.00
2018-12-06T16:31:06.157Z,4.00
2018-12-06T16:33:36.220Z,4.00
2018-12-06T16:36:04.476Z,3.90
2018-12-06T16:38:32.630Z,3.90
2018-12-06T16:41:00.602Z,3.90
2018-12-06T16:43:28.442Z,3.90
2018-12-06T16:45:56.842Z,3.90
2018-12-06T16:48:24.715Z,3.90
2018-12-06T16:50:52.849Z,3.90
2018-12-06T16:53:23.396Z,3.90
2018-12-06T16:55:52.071Z,3.90
2018-12-06T16:58:19.909Z,3.80
2018-12-06T17:00:47.821Z,3.80
2018-12-06T17:03:16.554Z,3.70
2018-12-06T17:05:44.373Z,3.80
2018-12-06T17:08:13.060Z,3.80
2018-12-06T17:10:41.084Z,3.80
2018-12-06T17:13:09.329Z,3.70
2018-12-06T17:15:37.561Z,3.70
2018-12-06T17:18:08.845Z,3.70
2018-12-06T17:20:36.789Z,3.70
2018-12-06T17:23:04.681Z,3.70
2018-12-06T17:25:32.624Z,3.70
2018-12-06T17:28:01.200Z,3.70
2018-12-06T17:30:29.191Z,3.70
2018-12-06T17:32:57.156Z,3.70
2018-12-06T17:35:27.311Z,3.70
2018-12-06T17:37:56.084Z,3.70
2018-12-06T17:40:24.470Z,3.60
2018-12-06T17:42:56.220Z,3.70
2018-12-06T17:45:26.942Z,3.70
2018-12-06T17:47:58.369Z,3.60
2018-12-06T17:50:27.954Z,3.60
2018-12-06T17:52:57.385Z,3.50
2018-12-06T17:55:26.404Z,3.50
2018-12-06T17:57:54.885Z,3.50
2018-12-06T18:00:23.501Z,3.50
2018-12-06T18:02:52.243Z,3.50
2018-12-06T18:05:21.485Z,3.40
2018-12-06T18:07:54.750Z,3.40
2018-12-06T18:10:47.090Z,3.40
2018-12-06T18:13:30.431Z,3.40
2018-12-06T18:16:08.174Z,3.40
2018-12-06T18:18:40.438Z,3.30
2018-12-06T18:21:22.666Z,3.30
2018-12-06T18:24:02.536Z,3.30
2018-12-06T18:26:31.730Z,3.20
2018-12-06T18:29:00.609Z,3.10
2018-12-06T18:31:29.978Z,3.10
2018-12-06T18:34:00.273Z,3.00
2018-12-06T18:36:29.726Z,2.90
2018-12-06T18:39:05.352Z,3.00
2018-12-06T18:41:37.056Z,3.10
2018-12-06T18:44:06.075Z,3.10
2018-12-06T18:46:34.595Z,3.20
2018-12-06T18:49:04.225Z,3.20
2018-12-06T18:51:34.147Z,3.30
2018-12-06T18:54:07.627Z,3.30
2018-12-06T18:56:36.242Z,3.40
2018-12-06T18:59:04.366Z,3.40
2018-12-06T19:01:32.737Z,3.50
2018-12-06T19:04:01.070Z,3.50
2018-12-06T19:06:29.674Z,3.60
2018-12-06T19:08:58.054Z,3.60
2018-12-06T19:11:26.463Z,3.60
2018-12-06T19:13:54.511Z,3.70
2018-12-06T19:16:22.567Z,3.70
2018-12-06T19:18:52.109Z,3.80
2018-12-06T19:21:21.876Z,3.80
2018-12-06T19:23:51.192Z,3.80
2018-12-06T19:26:20.754Z,3.80
2018-12-06T19:28:51.722Z,3.80
2018-12-06T19:31:21.553Z,3.90
2018-12-06T19:33:54.335Z,3.90
2018-12-06T19:36:26.399Z,3.90
2018-12-06T19:39:00.932Z,4.00
2018-12-06T19:41:29.025Z,4.20
2018-12-06T19:43:56.974Z,4.10
2018-12-06T19:46:24.814Z,4.10
2018-12-06T19:48:52.679Z,4.00
2018-12-06T19:51:20.581Z,4.00
2018-12-06T19:53:48.542Z,4.10
2018-12-06T19:56:16.483Z,4.10
2018-12-06T19:58:44.301Z,4.10
2018-12-06T20:03:48.909Z,4.10
2018-12-06T20:06:17.336Z,4.10
2018-12-06T20:08:45.681Z,4.20
2018-12-06T20:11:15.058Z,4.20
2018-12-06T20:13:43.110Z,4.20
2018-12-06T20:16:10.940Z,4.20
2018-12-06T20:18:38.939Z,4.20
2018-12-06T20:21:06.894Z,4.20
2018-12-06T20:23:35.187Z,4.20
2018-12-06T20:26:03.149Z,4.20
2018-12-06T20:28:31.387Z,4.20
2018-12-06T20:30:59.532Z,4.20
2018-12-06T20:33:27.510Z,4.20
2018-12-06T20:36:37.889Z,4.20
2018-12-06T20:39:07.175Z,4.30
2018-12-06T20:41:38.098Z,4.30
2018-12-06T20:44:06.114Z,4.30
2018-12-06T20:46:34.203Z,4.40
2018-12-06T20:49:02.153Z,4.40
2018-12-06T20:51:30.025Z,4.40
2018-12-06T20:53:57.849Z,4.50
2018-12-06T20:56:25.683Z,4.50
2018-12-06T20:58:55.444Z,4.50
2018-12-06T21:01:25.315Z,4.60
2018-12-06T21:03:58.631Z,4.60
2018-12-06T21:06:29.566Z,4.60
2018-12-06T21:09:01.761Z,4.60
2018-12-06T21:11:32.504Z,4.60
2018-12-06T21:14:03.673Z,4.60
2018-12-06T21:16:34.756Z,4.60
2018-12-06T21:19:04.249Z,4.70
2018-12-06T21:21:32.487Z,4.60
2018-12-06T21:24:00.746Z,4.70
2018-12-06T21:26:31.686Z,4.70
2018-12-06T21:29:00.557Z,4.70
2018-12-06T21:31:30.375Z,4.60
2018-12-06T21:33:58.251Z,4.60
2018-12-06T21:36:26.343Z,4.60
2018-12-06T21:38:56.433Z,4.60
2018-12-06T21:41:27.859Z,4.70
2018-12-06T21:43:55.980Z,4.70
2018-12-06T21:46:23.962Z,4.70
2018-12-06T21:48:53.102Z,4.70
2018-12-06T21:51:20.989Z,4.70
2018-12-06T21:53:49.037Z,4.70
2018-12-06T21:56:16.991Z,4.70
2018-12-06T21:58:46.022Z,4.70
2018-12-06T22:01:22.953Z,4.70
2018-12-06T22:03:50.981Z,4.70
2018-12-06T22:06:19.197Z,4.70
2018-12-06T22:08:47.051Z,4.70
2018-12-06T22:11:15.047Z,4.70
2018-12-06T22:13:42.945Z,4.70
2018-12-06T22:16:10.883Z,4.70
2018-12-06T22:18:38.856Z,4.70
2018-12-06T22:21:07.989Z,4.70
2018-12-06T22:23:35.878Z,4.70
2018-12-06T22:26:06.004Z,4.70
2018-12-06T22:28:34.305Z,4.70
2018-12-06T22:31:02.525Z,4.60
2018-12-06T22:33:30.422Z,4.70
2018-12-06T22:35:58.360Z,4.70
2018-12-06T22:38:33.919Z,4.70
2018-12-06T22:40:57.354Z,4.60
2018-12-06T22:43:25.205Z,4.60
2018-12-06T22:45:59.719Z,4.60
2018-12-06T22:48:28.719Z,4.60
2018-12-06T22:50:56.676Z,4.60
2018-12-06T22:53:24.741Z,4.60
2018-12-06T22:55:52.605Z,4.60
2018-12-06T22:58:20.729Z,4.60
2018-12-06T23:00:54.833Z,4.60
2018-12-06T23:03:30.590Z,4.50
2018-12-06T23:05:59.648Z,4.50
2018-12-06T23:08:27.530Z,4.50
2018-12-06T23:10:55.545Z,4.50
2018-12-06T23:13:23.476Z,4.50
2018-12-06T23:15:51.761Z,4.50
2018-12-06T23:18:20.209Z,4.50
2018-12-06T23:20:48.269Z,4.50
2018-12-06T23:23:16.613Z,4.50
2018-12-06T23:25:45.805Z,4.50
2018-12-06T23:28:14.776Z,4.50
2018-12-06T23:30:42.669Z,4.50
2018-12-06T23:33:11.913Z,4.50
2018-12-06T23:35:40.025Z,4.50
2018-12-06T23:38:07.891Z,4.50
2018-12-06T23:40:36.433Z,4.50
2018-12-06T23:43:04.469Z,4.50
2018-12-06T23:45:32.566Z,4.50
2018-12-06T23:48:00.378Z,4.50
2018-12-06T23:50:28.685Z,4.50
2018-12-06T23:52:56.923Z,4.50
2018-12-06T23:55:24.758Z,4.50
2018-12-06T23:57:52.627Z,4.50
